Time;durP1;ratioP1;P1;durP2;ratioP2;P2;SDS_P1;SDS_P2;PMS_P1;PMS_P2;Temp;Humidity;BMP_temperature;BMP_pressure;BME280_temperature;BME280_humidity;BME280_pressure;Samples;Min_cycle;Max_cycle;Signal;HPM_P1;HPM_P2
2021/12/18 00:01:06;;;;;;;;;;;8.10;99.90;;;;;;5052425;28;19917;-62
2021/12/18 00:03:33;;;;;;;;;;;8.00;99.90;;;;;;5052304;28;19971;-62
2021/12/18 00:05:59;;;;;;;;;;;8.00;99.90;;;;;;5052420;28;20349;-62
2021/12/18 00:08:24;;;;;;;;;;;8.00;99.90;;;;;;5052090;28;19974;-62
2021/12/18 00:10:52;;;;;;;;;;;8.00;99.90;;;;;;5052492;28;19916;-62
2021/12/18 00:13:17;;;;;;;;;;;8.00;99.90;;;;;;5052323;28;19918;-62
2021/12/18 00:15:43;;;;;;;;;;;8.00;99.90;;;;;;5052422;28;20356;-62
2021/12/18 00:18:08;;;;;;;;;;;7.90;99.90;;;;;;5052205;28;19921;-62
2021/12/18 00:20:36;;;;;;;;;;;7.90;99.90;;;;;;5052146;28;19923;-62
2021/12/18 00:23:01;;;;;;;;;;;7.80;99.90;;;;;;5051759;28;19924;-62
2021/12/18 00:25:27;;;;;;;;;;;7.80;99.90;;;;;;5052484;28;20302;-62
2021/12/18 00:27:52;;;;;;;;;;;7.80;99.90;;;;;;5034266;28;19960;-62
2021/12/18 00:30:18;;;;;;;;;;;7.80;99.90;;;;;;5052053;28;19920;-62
2021/12/18 00:32:43;;;;;;;;;;;7.80;99.90;;;;;;5051769;28;19916;-62
2021/12/18 00:35:09;;;;;;;;;;;7.80;99.90;;;;;;5051936;28;20340;-62
2021/12/18 00:37:35;;;;;;;;;;;7.80;99.90;;;;;;5051653;28;19921;-62
2021/12/18 00:40:01;;;;;;;;;;;7.80;99.90;;;;;;5052023;28;19952;-62
2021/12/18 00:45:12;;;;;;;;;;;7.80;99.90;;;;;;5051871;28;19916;-63
2021/12/18 00:47:37;;;;;;;;;;;7.80;99.90;;;;;;5034134;28;19956;-63
2021/12/18 00:50:04;;;;;;;;;;;7.80;99.90;;;;;;5051350;28;19963;-62
2021/12/18 00:52:31;;;;;;;;;;;7.80;99.90;;;;;;5051196;28;19924;-62
2021/12/18 00:54:56;;;;;;;;;;;7.80;99.90;;;;;;5051653;28;19917;-63
2021/12/18 00:57:22;;;;;;;;;;;7.80;99.90;;;;;;5033499;28;19921;-62
2021/12/18 00:59:49;;;;;;;;;;;7.80;99.90;;;;;;5051587;28;19923;-62
2021/12/18 01:02:15;;;;;;;;;;;7.80;99.90;;;;;;5033103;28;19921;-62
2021/12/18 01:04:40;;;;;;;;;;;7.80;99.90;;;;;;5051416;28;19921;-62
2021/12/18 01:07:06;;;;;;;;;;;7.80;99.90;;;;;;5051395;28;20011;-63
2021/12/18 01:09:56;;;;;;;;;;;7.80;99.90;;;;;;5051586;28;20256;-63
2021/12/18 01:12:31;;;;;;;;;;;7.70;99.90;;;;;;5051042;28;19917;-62
2021/12/18 01:15:12;;;;;;;;;;;7.70;99.90;;;;;;5050952;28;19916;-62
2021/12/18 01:23:06;;;;;;;;;;;7.60;99.90;;;;;;5050584;28;19924;-62
2021/12/18 01:25:32;;;;;;;;;;;7.60;99.90;;;;;;5050896;28;19980;-62
2021/12/18 01:27:57;;;;;;;;;;;7.50;99.90;;;;;;5051159;28;19956;-63
2021/12/18 01:30:23;;;;;;;;;;;7.50;99.90;;;;;;5050194;28;20333;-63
2021/12/18 01:32:49;;;;;;;;;;;7.50;99.90;;;;;;5050578;28;19920;-63
2021/12/18 01:35:15;;;;;;;;;;;7.50;99.90;;;;;;5050728;28;20016;-63
2021/12/18 01:37:41;;;;;;;;;;;7.50;99.90;;;;;;5050455;28;20007;-63
2021/12/18 01:40:07;;;;;;;;;;;7.50;99.90;;;;;;5050809;28;20563;-63
2021/12/18 01:45:27;;;;;;;;;;;7.50;99.90;;;;;;5050573;28;20333;-63
2021/12/18 01:53:20;;;;;;;;;;;7.50;99.90;;;;;;5050464;28;19963;-63
2021/12/18 01:55:49;;;;;;;;;;;7.40;99.90;;;;;;5050430;28;19955;-63
2021/12/18 01:58:19;;;;;;;;;;;7.50;99.90;;;;;;5050353;28;19916;-63
2021/12/18 02:00:44;;;;;;;;;;;7.50;99.90;;;;;;5049740;28;19963;-63
2021/12/18 02:03:10;;;;;;;;;;;7.50;99.90;;;;;;5032484;28;19952;-63
2021/12/18 02:05:37;;;;;;;;;;;7.50;99.90;;;;;;5050507;28;19952;-63
2021/12/18 02:08:03;;;;;;;;;;;7.50;99.90;;;;;;5050312;28;19916;-63
2021/12/18 02:10:31;;;;;;;;;;;7.50;99.90;;;;;;5050392;28;19983;-63
2021/12/18 02:13:08;;;;;;;;;;;7.50;99.90;;;;;;5050262;28;19917;-63
2021/12/18 02:21:07;;;;;;;;;;;7.40;99.90;;;;;;5050305;28;19963;-63
2021/12/18 02:23:33;;;;;;;;;;;7.40;99.90;;;;;;5049887;28;19917;-63
2021/12/18 02:25:59;;;;;;;;;;;7.40;99.90;;;;;;5050133;28;19925;-63
2021/12/18 02:28:26;;;;;;;;;;;7.30;99.90;;;;;;5049980;28;20003;-63
2021/12/18 02:30:52;;;;;;;;;;;7.30;99.90;;;;;;5049964;28;19963;-63
2021/12/18 02:33:18;;;;;;;;;;;7.40;99.90;;;;;;5049964;28;20524;-63
2021/12/18 02:35:48;;;;;;;;;;;7.40;99.90;;;;;;5050016;28;20007;-63
2021/12/18 02:38:20;;;;;;;;;;;7.40;99.90;;;;;;5049715;28;19917;-63
2021/12/18 02:43:17;;;;;;;;;;;7.30;99.90;;;;;;5050074;28;19917;-63
2021/12/18 02:45:42;;;;;;;;;;;7.30;99.90;;;;;;5049986;28;19923;-63
2021/12/18 02:48:07;;;;;;;;;;;7.30;99.90;;;;;;5049882;28;19995;-63
2021/12/18 02:50:33;;;;;;;;;;;7.30;99.90;;;;;;5049840;28;20007;-63
2021/12/18 02:52:58;;;;;;;;;;;7.20;99.90;;;;;;5049801;28;19925;-63
2021/12/18 02:55:24;;;;;;;;;;;7.30;99.90;;;;;;5050178;28;19963;-63
2021/12/18 02:57:49;;;;;;;;;;;7.20;99.90;;;;;;5049848;28;19927;-63
2021/12/18 03:00:16;;;;;;;;;;;7.10;99.90;;;;;;5049865;28;20366;-63
2021/12/18 03:02:44;;;;;;;;;;;7.10;99.90;;;;;;5049575;28;19923;-63
2021/12/18 03:05:15;;;;;;;;;;;7.10;99.90;;;;;;5049590;28;20336;-63
2021/12/18 03:07:40;;;;;;;;;;;7.10;99.90;;;;;;5049850;28;20026;-63
2021/12/18 03:23:46;;;;;;;;;;;7.00;99.90;;;;;;5053122;28;19928;-63
2021/12/18 03:26:13;;;;;;;;;;;7.00;99.90;;;;;;5053333;28;19920;-63
2021/12/18 03:28:39;;;;;;;;;;;7.00;99.90;;;;;;5052993;28;19920;-63
2021/12/18 03:31:04;;;;;;;;;;;7.10;99.90;;;;;;5053276;28;19917;-63
2021/12/18 03:33:30;;;;;;;;;;;7.00;99.90;;;;;;5052868;28;19971;-63
2021/12/18 03:35:56;;;;;;;;;;;7.00;99.90;;;;;;5053071;28;19978;-63
2021/12/18 03:38:21;;;;;;;;;;;7.00;99.90;;;;;;5052954;28;20375;-63
2021/12/18 03:40:47;;;;;;;;;;;7.00;99.90;;;;;;5052774;28;19917;-63
2021/12/18 03:43:12;;;;;;;;;;;7.00;99.90;;;;;;5052664;28;19920;-63
2021/12/18 03:45:38;;;;;;;;;;;7.00;99.90;;;;;;5052999;28;19921;-63
2021/12/18 03:48:04;;;;;;;;;;;7.10;99.90;;;;;;5053014;28;19920;-63
2021/12/18 03:50:29;;;;;;;;;;;7.00;99.90;;;;;;5052778;28;19916;-63
2021/12/18 03:52:55;;;;;;;;;;;7.00;99.90;;;;;;5052534;28;19924;-63
2021/12/18 03:55:21;;;;;;;;;;;7.00;99.90;;;;;;5052606;28;20427;-63
2021/12/18 03:57:46;;;;;;;;;;;6.90;99.90;;;;;;5052793;28;20393;-63
2021/12/18 04:00:14;;;;;;;;;;;6.80;99.90;;;;;;5052618;28;19917;-63
2021/12/18 04:02:40;;;;;;;;;;;6.70;99.90;;;;;;5052373;28;19921;-63
2021/12/18 04:05:06;;;;;;;;;;;6.70;99.90;;;;;;5052527;28;19924;-63
2021/12/18 04:07:39;;;;;;;;;;;6.60;99.90;;;;;;5052552;28;20351;-63
2021/12/18 04:10:05;;;;;;;;;;;6.60;99.90;;;;;;5052382;28;19916;-63
2021/12/18 04:12:30;;;;;;;;;;;6.60;99.90;;;;;;5052037;28;19923;-63
2021/12/18 04:14:56;;;;;;;;;;;6.60;99.90;;;;;;5052478;28;19916;-63
2021/12/18 04:17:21;;;;;;;;;;;6.60;99.90;;;;;;5052207;28;19970;-63
2021/12/18 04:19:47;;;;;;;;;;;6.60;99.90;;;;;;5052389;28;19963;-63
2021/12/18 04:22:12;;;;;;;;;;;6.50;99.90;;;;;;5051847;28;19948;-63
2021/12/18 04:24:37;;;;;;;;;;;6.50;99.90;;;;;;5051197;28;19974;-63
2021/12/18 04:27:03;;;;;;;;;;;6.60;99.90;;;;;;5052113;28;19927;-63
2021/12/18 04:29:29;;;;;;;;;;;6.60;99.90;;;;;;5052300;28;19928;-63
2021/12/18 04:31:56;;;;;;;;;;;6.50;99.90;;;;;;5051751;28;20298;-63
2021/12/18 04:34:21;;;;;;;;;;;6.50;99.90;;;;;;5052036;28;20011;-62
2021/12/18 04:36:47;;;;;;;;;;;6.50;99.90;;;;;;5051743;28;20399;-63
2021/12/18 04:39:12;;;;;;;;;;;6.50;99.90;;;;;;5051854;28;19927;-63
2021/12/18 04:41:39;;;;;;;;;;;6.50;99.90;;;;;;5051808;28;19917;-63
2021/12/18 04:44:05;;;;;;;;;;;6.50;99.90;;;;;;5051691;28;20011;-63
2021/12/18 04:46:31;;;;;;;;;;;6.50;99.90;;;;;;5051572;28;20052;-63
2021/12/18 04:48:56;;;;;;;;;;;6.50;99.90;;;;;;5051836;28;19924;-63
2021/12/18 04:51:21;;;;;;;;;;;6.50;99.90;;;;;;5051645;28;20384;-63
2021/12/18 04:53:47;;;;;;;;;;;6.50;99.90;;;;;;5051147;28;19921;-63
2021/12/18 04:56:12;;;;;;;;;;;6.60;99.90;;;;;;5051622;28;19927;-63
2021/12/18 04:58:38;;;;;;;;;;;6.60;99.90;;;;;;5033901;28;20396;-63
2021/12/18 05:01:03;;;;;;;;;;;6.60;99.90;;;;;;5051445;28;19916;-63
2021/12/18 05:03:30;;;;;;;;;;;6.60;99.90;;;;;;5051099;28;19947;-63
2021/12/18 05:05:55;;;;;;;;;;;6.60;99.90;;;;;;5051279;28;19917;-63
2021/12/18 05:08:21;;;;;;;;;;;6.60;99.90;;;;;;5051092;28;19970;-63
2021/12/18 05:10:46;;;;;;;;;;;6.60;99.90;;;;;;5051625;28;20557;-63
2021/12/18 05:13:12;;;;;;;;;;;6.60;99.90;;;;;;5051119;28;19917;-63
2021/12/18 05:15:37;;;;;;;;;;;6.50;99.90;;;;;;5051104;28;19917;-63
2021/12/18 05:18:03;;;;;;;;;;;6.50;99.90;;;;;;5051012;28;19927;-63
2021/12/18 05:20:28;;;;;;;;;;;6.50;99.90;;;;;;5051178;28;20007;-63
2021/12/18 05:22:54;;;;;;;;;;;6.40;99.90;;;;;;5050643;28;19924;-63
2021/12/18 05:25:19;;;;;;;;;;;6.50;99.90;;;;;;5051135;28;19916;-63
2021/12/18 05:27:45;;;;;;;;;;;6.50;99.90;;;;;;5050826;28;19923;-63
2021/12/18 05:30:11;;;;;;;;;;;6.50;99.90;;;;;;5050945;28;19917;-63
2021/12/18 05:32:37;;;;;;;;;;;6.50;99.90;;;;;;5050913;28;20322;-63
2021/12/18 05:35:03;;;;;;;;;;;6.50;99.90;;;;;;5050789;28;20058;-63
2021/12/18 05:37:44;;;;;;;;;;;6.50;99.90;;;;;;5050213;28;19955;-63
2021/12/18 05:40:16;;;;;;;;;;;6.50;99.90;;;;;;5050857;28;19923;-63
2021/12/18 05:42:42;;;;;;;;;;;6.50;99.90;;;;;;5050598;28;19916;-63
2021/12/18 05:45:07;;;;;;;;;;;6.50;99.90;;;;;;5050743;28;19916;-63
2021/12/18 05:47:33;;;;;;;;;;;6.50;99.90;;;;;;5050531;28;20367;-63
2021/12/18 05:49:59;;;;;;;;;;;6.50;99.90;;;;;;5050417;28;19924;-63
2021/12/18 05:52:25;;;;;;;;;;;6.50;99.90;;;;;;5050695;28;19955;-63
2021/12/18 05:54:50;;;;;;;;;;;6.50;99.90;;;;;;5050610;28;19917;-63
2021/12/18 05:57:16;;;;;;;;;;;6.50;99.90;;;;;;5050460;28;20450;-63
2021/12/18 05:59:41;;;;;;;;;;;6.50;99.90;;;;;;5050460;28;19917;-63
2021/12/18 06:02:07;;;;;;;;;;;6.50;99.90;;;;;;5050223;28;19999;-63
2021/12/18 06:04:32;;;;;;;;;;;6.50;99.90;;;;;;5032548;28;20382;-63
2021/12/18 06:07:04;;;;;;;;;;;6.50;99.90;;;;;;5050484;28;20535;-63
2021/12/18 06:09:31;;;;;;;;;;;6.50;99.90;;;;;;5050500;28;19920;-63
2021/12/18 06:11:56;;;;;;;;;;;6.50;99.90;;;;;;5050139;28;19956;-63
2021/12/18 06:14:22;;;;;;;;;;;6.50;99.90;;;;;;5050445;28;19923;-63
2021/12/18 06:16:47;;;;;;;;;;;6.50;99.90;;;;;;5050017;28;19979;-63
2021/12/18 06:19:13;;;;;;;;;;;6.50;99.90;;;;;;5050051;28;20622;-63
2021/12/18 06:21:38;;;;;;;;;;;6.60;99.90;;;;;;5050247;28;19952;-63
2021/12/18 06:24:04;;;;;;;;;;;6.60;99.90;;;;;;5050309;28;19916;-63
2021/12/18 06:26:29;;;;;;;;;;;6.60;99.90;;;;;;5050179;28;19920;-63
2021/12/18 06:28:55;;;;;;;;;;;6.60;99.90;;;;;;5049913;28;19917;-63
2021/12/18 06:31:21;;;;;;;;;;;6.60;99.90;;;;;;5050084;28;19916;-63
2021/12/18 06:33:46;;;;;;;;;;;6.60;99.90;;;;;;5050026;28;19921;-63
2021/12/18 06:36:12;;;;;;;;;;;6.60;99.90;;;;;;5050161;28;19995;-63
2021/12/18 06:38:37;;;;;;;;;;;6.60;99.90;;;;;;5050053;28;19920;-63
2021/12/18 06:41:03;;;;;;;;;;;6.60;99.90;;;;;;5049944;28;19923;-63
2021/12/18 06:43:28;;;;;;;;;;;6.60;99.90;;;;;;5049788;28;19935;-63
2021/12/18 06:45:54;;;;;;;;;;;6.60;99.90;;;;;;5050202;28;19924;-63
2021/12/18 06:48:19;;;;;;;;;;;6.60;99.90;;;;;;5052938;28;19927;-63
2021/12/18 06:50:45;;;;;;;;;;;6.60;99.90;;;;;;5054018;28;20256;-63
2021/12/18 06:53:10;;;;;;;;;;;6.60;99.90;;;;;;5035963;28;19917;-63
2021/12/18 06:55:36;;;;;;;;;;;6.60;99.90;;;;;;5054033;28;19920;-63
2021/12/18 06:58:01;;;;;;;;;;;6.60;99.90;;;;;;5053633;28;19921;-63
2021/12/18 07:00:27;;;;;;;;;;;6.60;99.90;;;;;;5053741;28;20016;-63
2021/12/18 07:02:53;;;;;;;;;;;6.60;99.90;;;;;;5053066;28;20007;-63
2021/12/18 07:05:19;;;;;;;;;;;6.60;99.90;;;;;;5054415;28;20107;-63
2021/12/18 07:07:45;;;;;;;;;;;6.60;99.90;;;;;;5053883;28;19917;-63
2021/12/18 07:10:12;;;;;;;;;;;6.60;99.90;;;;;;5053663;28;19917;-63
2021/12/18 07:12:37;;;;;;;;;;;6.60;99.90;;;;;;5053295;28;19956;-63
2021/12/18 07:15:04;;;;;;;;;;;6.60;99.90;;;;;;5053468;28;20331;-63
2021/12/18 07:17:29;;;;;;;;;;;6.60;99.90;;;;;;5053134;28;20003;-64
2021/12/18 07:19:55;;;;;;;;;;;6.60;99.90;;;;;;5053558;28;20008;-64
2021/12/18 07:22:20;;;;;;;;;;;6.70;99.90;;;;;;5053085;28;19970;-64
2021/12/18 07:24:46;;;;;;;;;;;6.70;99.90;;;;;;5053415;28;19924;-64
2021/12/18 07:27:11;;;;;;;;;;;6.70;99.90;;;;;;5053233;28;20368;-64
2021/12/18 07:29:37;;;;;;;;;;;6.70;99.90;;;;;;5093468;22;19923;-63
2021/12/18 07:32:02;;;;;;;;;;;6.70;99.90;;;;;;5092976;28;19915;-63
2021/12/18 07:34:28;;;;;;;;;;;6.70;99.90;;;;;;5093573;28;19916;-63
2021/12/18 07:36:53;;;;;;;;;;;6.70;99.90;;;;;;5093399;28;19920;-62
2021/12/18 07:39:19;;;;;;;;;;;6.70;99.90;;;;;;5058564;28;19951;-62
2021/12/18 07:41:44;;;;;;;;;;;6.70;99.90;;;;;;5093084;28;19924;-62
2021/12/18 07:44:10;;;;;;;;;;;6.70;99.90;;;;;;5092919;28;19958;-62
2021/12/18 07:46:36;;;;;;;;;;;6.80;99.90;;;;;;5092929;28;19915;-63
2021/12/18 07:49:03;;;;;;;;;;;6.80;99.90;;;;;;5093127;28;20383;-62
2021/12/18 07:51:29;;;;;;;;;;;6.70;99.90;;;;;;5093007;28;20026;-62
2021/12/18 07:53:54;;;;;;;;;;;6.80;99.90;;;;;;5092884;28;20010;-63
2021/12/18 07:56:20;;;;;;;;;;;6.80;99.90;;;;;;5092881;28;19926;-63
2021/12/18 07:58:45;;;;;;;;;;;6.80;99.90;;;;;;5091848;28;20060;-62
2021/12/18 08:01:11;;;;;;;;;;;6.80;99.90;;;;;;5092731;28;20583;-62
2021/12/18 08:03:36;;;;;;;;;;;6.80;99.90;;;;;;5092607;28;20585;-61
2021/12/18 08:06:02;;;;;;;;;;;6.80;99.90;;;;;;5092813;28;19923;-62
2021/12/18 08:08:28;;;;;;;;;;;6.80;99.90;;;;;;5092792;28;19968;-62
2021/12/18 08:10:53;;;;;;;;;;;6.80;99.90;;;;;;5092810;28;20432;-63
2021/12/18 08:13:19;;;;;;;;;;;6.90;99.90;;;;;;5092289;28;19955;-63
2021/12/18 08:15:44;;;;;;;;;;;6.90;99.90;;;;;;5092376;28;19994;-62
2021/12/18 08:18:10;;;;;;;;;;;6.90;99.90;;;;;;5092629;28;19973;-62
2021/12/18 08:20:35;;;;;;;;;;;6.90;99.90;;;;;;5092595;28;19923;-62
2021/12/18 08:23:01;;;;;;;;;;;6.90;99.90;;;;;;5057333;28;19924;-62
2021/12/18 08:25:27;;;;;;;;;;;6.90;99.90;;;;;;5092241;28;19927;-63
2021/12/18 08:27:55;;;;;;;;;;;6.90;99.90;;;;;;5092277;28;19945;-62
2021/12/18 08:30:21;;;;;;;;;;;6.90;99.90;;;;;;5092145;28;19916;-61
2021/12/18 08:32:46;;;;;;;;;;;7.00;99.90;;;;;;5092213;28;20144;-62
2021/12/18 08:35:12;;;;;;;;;;;7.00;99.90;;;;;;5092266;28;20503;-61
2021/12/18 08:37:37;;;;;;;;;;;7.00;99.90;;;;;;5092110;28;19920;-60
2021/12/18 08:40:03;;;;;;;;;;;7.00;99.90;;;;;;5091987;28;20418;-60
2021/12/18 08:42:29;;;;;;;;;;;7.10;99.90;;;;;;5091845;28;19916;-60
2021/12/18 08:44:54;;;;;;;;;;;7.10;99.90;;;;;;5091811;28;19977;-60
2021/12/18 08:47:20;;;;;;;;;;;7.10;99.90;;;;;;5092137;28;19916;-60
2021/12/18 08:49:46;;;;;;;;;;;7.10;99.90;;;;;;5092011;28;19922;-60
2021/12/18 08:52:11;;;;;;;;;;;7.10;99.90;;;;;;5091872;28;19915;-60
2021/12/18 08:54:37;;;;;;;;;;;7.20;99.90;;;;;;5091874;28;20366;-60
2021/12/18 08:57:02;;;;;;;;;;;7.20;99.90;;;;;;5091676;28;19923;-60
2021/12/18 08:59:28;;;;;;;;;;;7.20;99.90;;;;;;5091438;28;19915;-60
2021/12/18 09:01:53;;;;;;;;;;;7.20;99.90;;;;;;5091686;28;19916;-60
2021/12/18 09:04:19;;;;;;;;;;;7.30;99.90;;;;;;5091760;28;20383;-60
2021/12/18 09:06:44;;;;;;;;;;;7.30;99.90;;;;;;5073177;28;19923;-60
2021/12/18 09:09:10;;;;;;;;;;;7.30;99.90;;;;;;5091282;28;19916;-60
2021/12/18 09:11:35;;;;;;;;;;;7.30;99.90;;;;;;5091185;28;19916;-60
2021/12/18 09:14:02;;;;;;;;;;;7.30;99.90;;;;;;5091214;28;20289;-60
2021/12/18 09:16:28;;;;;;;;;;;7.40;99.90;;;;;;5091401;28;20023;-60
2021/12/18 09:18:53;;;;;;;;;;;7.40;99.90;;;;;;5091402;28;19951;-60
2021/12/18 09:21:20;;;;;;;;;;;7.40;99.90;;;;;;5091347;28;19920;-60
2021/12/18 09:23:45;;;;;;;;;;;7.40;99.90;;;;;;5090746;28;20273;-60
2021/12/18 09:26:11;;;;;;;;;;;7.40;99.90;;;;;;5073009;28;19973;-60
2021/12/18 09:28:36;;;;;;;;;;;7.50;99.90;;;;;;5090792;28;19922;-60
2021/12/18 09:31:02;;;;;;;;;;;7.50;99.90;;;;;;5073099;28;19916;-59
2021/12/18 09:33:27;;;;;;;;;;;7.50;99.90;;;;;;5091016;28;19922;-60
2021/12/18 09:35:53;;;;;;;;;;;7.50;99.90;;;;;;5091028;28;20377;-59
2021/12/18 09:38:18;;;;;;;;;;;7.50;99.90;;;;;;5090752;28;19916;-58
2021/12/18 09:40:44;;;;;;;;;;;7.60;99.90;;;;;;5091084;28;20003;-59
2021/12/18 09:43:09;;;;;;;;;;;7.60;99.90;;;;;;5089899;28;19922;-59
2021/12/18 09:45:35;;;;;;;;;;;7.80;99.90;;;;;;5089097;28;19972;-59
2021/12/18 09:48:00;;;;;;;;;;;7.70;99.90;;;;;;5088938;28;19915;-61
2021/12/18 09:50:27;;;;;;;;;;;7.70;99.90;;;;;;5088335;28;19922;-56
2021/12/18 09:52:53;;;;;;;;;;;7.80;99.90;;;;;;5089402;28;19948;-59
2021/12/18 09:55:19;;;;;;;;;;;7.80;99.90;;;;;;5089515;28;19916;-59
2021/12/18 09:57:46;;;;;;;;;;;7.80;99.90;;;;;;5089211;28;19972;-59
2021/12/18 10:00:13;;;;;;;;;;;7.90;99.90;;;;;;5089948;28;20006;-58
2021/12/18 10:02:39;;;;;;;;;;;7.90;99.90;;;;;;5090632;28;19916;-60
2021/12/18 10:05:05;;;;;;;;;;;7.90;99.90;;;;;;5090786;28;19970;-62
2021/12/18 10:07:31;;;;;;;;;;;7.90;99.90;;;;;;5072277;28;19923;-60
2021/12/18 10:09:57;;;;;;;;;;;7.90;99.90;;;;;;5072677;28;19915;-60
2021/12/18 10:12:27;;;;;;;;;;;8.00;99.90;;;;;;5072089;28;19922;-59
2021/12/18 10:14:54;;;;;;;;;;;8.00;99.90;;;;;;5072455;28;19916;-57
2021/12/18 10:17:39;;;;;;;;;;;8.00;99.90;;;;;;5090496;28;20010;-58
2021/12/18 10:20:11;;;;;;;;;;;8.00;99.90;;;;;;5090329;28;19916;-59
2021/12/18 10:22:41;;;;;;;;;;;8.10;99.90;;;;;;5089409;28;20006;-60
2021/12/18 10:25:07;;;;;;;;;;;8.10;99.90;;;;;;5090666;28;19981;-59
2021/12/18 10:27:33;;;;;;;;;;;8.10;99.90;;;;;;5072134;28;20395;-60
2021/12/18 10:30:16;;;;;;;;;;;8.20;99.90;;;;;;5090182;28;19923;-60
2021/12/18 10:32:55;;;;;;;;;;;8.20;99.90;;;;;;5090170;28;20545;-58
2021/12/18 10:35:21;;;;;;;;;;;8.30;99.90;;;;;;5072104;28;20297;-53
2021/12/18 10:37:46;;;;;;;;;;;8.30;99.90;;;;;;5090318;28;19928;-59
2021/12/18 10:40:12;;;;;;;;;;;8.30;99.90;;;;;;5090236;28;19922;-58
2021/12/18 10:42:42;;;;;;;;;;;8.40;99.90;;;;;;5090128;28;20393;-57
2021/12/18 10:45:15;;;;;;;;;;;8.40;99.90;;;;;;5090218;28;19927;-59
2021/12/18 10:47:49;;;;;;;;;;;8.50;99.90;;;;;;5090025;28;19919;-54
2021/12/18 10:50:15;;;;;;;;;;;8.50;99.90;;;;;;5071890;28;19923;-56
2021/12/18 10:52:40;;;;;;;;;;;8.60;99.90;;;;;;5090040;28;19924;-57
2021/12/18 10:55:06;;;;;;;;;;;8.60;99.90;;;;;;5090268;28;19923;-55
2021/12/18 10:57:31;;;;;;;;;;;8.60;99.90;;;;;;5089991;28;19926;-59
2021/12/18 10:59:58;;;;;;;;;;;8.70;99.90;;;;;;5089887;28;19965;-59
2021/12/18 11:02:26;;;;;;;;;;;8.80;99.90;;;;;;5089703;28;19958;-56
2021/12/18 11:04:51;;;;;;;;;;;8.80;99.90;;;;;;5090062;28;20451;-57
2021/12/18 11:07:27;;;;;;;;;;;8.90;99.90;;;;;;5090049;28;19920;-57
2021/12/18 11:10:12;;;;;;;;;;;8.90;99.90;;;;;;5089867;28;19961;-59
2021/12/18 11:15:21;;;;;;;;;;;9.00;99.90;;;;;;5072137;28;20016;-63
2021/12/18 11:17:47;;;;;;;;;;;9.00;99.90;;;;;;5071652;28;20616;-62
2021/12/18 11:20:13;;;;;;;;;;;9.00;99.90;;;;;;5071811;28;19916;-66
2021/12/18 11:22:39;;;;;;;;;;;9.00;99.90;;;;;;5089695;28;19916;-61
2021/12/18 11:25:09;;;;;;;;;;;9.00;99.90;;;;;;5090000;28;19916;-60
2021/12/18 11:27:35;;;;;;;;;;;9.10;99.90;;;;;;5071499;28;19923;-61
2021/12/18 11:30:27;;;;;;;;;;;9.00;99.90;;;;;;5089598;28;19977;-62
2021/12/18 11:32:54;;;;;;;;;;;9.10;99.90;;;;;;5087216;28;19915;-63
2021/12/18 11:35:20;;;;;;;;;;;9.10;99.90;;;;;;5075284;28;19923;-62
2021/12/18 11:37:56;;;;;;;;;;;9.10;99.90;;;;;;5093076;28;20454;-62
2021/12/18 11:40:24;;;;;;;;;;;9.20;99.90;;;;;;5093162;28;19916;-63
2021/12/18 11:42:49;;;;;;;;;;;9.20;99.90;;;;;;5092982;28;19922;-62
2021/12/18 11:45:15;;;;;;;;;;;9.20;99.90;;;;;;5075346;28;19916;-63
2021/12/18 11:47:44;;;;;;;;;;;9.20;99.90;;;;;;5093129;28;19920;-62
2021/12/18 11:50:19;;;;;;;;;;;9.20;99.90;;;;;;5093118;28;19916;-62
2021/12/18 11:53:11;;;;;;;;;;;9.20;99.90;;;;;;5092717;28;19923;-62
2021/12/18 11:55:36;;;;;;;;;;;9.20;99.90;;;;;;5089871;28;19922;-62
2021/12/18 11:58:18;;;;;;;;;;;9.20;99.90;;;;;;5074694;28;19924;-62
2021/12/18 12:00:45;;;;;;;;;;;9.20;99.90;;;;;;5092697;28;19962;-62
2021/12/18 12:03:12;;;;;;;;;;;9.20;99.90;;;;;;5092712;28;19916;-65
2021/12/18 12:05:45;;;;;;;;;;;9.20;99.90;;;;;;5092857;28;19927;-63
2021/12/18 12:11:26;;;;;;;;;;;9.20;99.90;;;;;;5053148;28;19936;-65
2021/12/18 12:13:59;;;;;;;;;;;9.20;99.90;;;;;;5074238;28;19916;-64
2021/12/18 12:16:46;;;;;;;;;;;9.20;99.90;;;;;;5074586;28;20011;-65
2021/12/18 12:19:13;;;;;;;;;;;9.20;99.90;;;;;;5092554;28;19920;-64
2021/12/18 12:21:39;;;;;;;;;;;9.30;99.90;;;;;;5092230;28;19916;-65
2021/12/18 12:24:05;;;;;;;;;;;9.30;99.90;;;;;;5074315;28;19931;-65
2021/12/18 12:26:30;;;;;;;;;;;9.30;99.90;;;;;;5092512;28;20340;-65
2021/12/18 12:28:56;;;;;;;;;;;9.30;99.90;;;;;;5092337;28;20317;-65
2021/12/18 12:31:22;;;;;;;;;;;9.30;99.90;;;;;;5091956;28;19976;-65
2021/12/18 12:33:49;;;;;;;;;;;9.40;99.90;;;;;;5091986;28;19994;-65
2021/12/18 12:36:25;;;;;;;;;;;9.40;99.90;;;;;;5073743;28;19920;-65
2021/12/18 12:38:51;;;;;;;;;;;9.40;99.90;;;;;;5092119;28;19923;-65
2021/12/18 12:41:31;;;;;;;;;;;9.40;99.90;;;;;;5092020;28;19915;-65
2021/12/18 12:44:01;;;;;;;;;;;9.40;99.90;;;;;;5091629;28;20289;-64
2021/12/18 12:46:28;;;;;;;;;;;9.40;99.90;;;;;;5073551;28;19916;-64
2021/12/18 12:49:02;;;;;;;;;;;9.40;99.90;;;;;;5091655;28;20649;-64
2021/12/18 12:51:48;;;;;;;;;;;9.40;99.90;;;;;;5073748;28;19979;-66
2021/12/18 12:54:46;;;;;;;;;;;9.30;99.90;;;;;;5073484;28;19929;-65
2021/12/18 12:57:23;;;;;;;;;;;9.30;99.90;;;;;;5056952;28;19969;-65
2021/12/18 12:59:49;;;;;;;;;;;9.40;99.90;;;;;;5073533;28;19939;-65
2021/12/18 13:02:16;;;;;;;;;;;9.40;99.90;;;;;;5091821;28;20274;-65
2021/12/18 13:04:42;;;;;;;;;;;9.40;99.90;;;;;;5091479;28;20549;-65
2021/12/18 13:07:08;;;;;;;;;;;9.40;99.90;;;;;;5091583;28;19926;-66
2021/12/18 13:09:34;;;;;;;;;;;9.40;99.90;;;;;;5091242;28;20417;-66
2021/12/18 13:12:04;;;;;;;;;;;9.40;99.90;;;;;;5091330;28;20335;-65
2021/12/18 13:14:36;;;;;;;;;;;9.30;99.90;;;;;;5091767;28;19967;-65
2021/12/18 13:17:15;;;;;;;;;;;9.30;99.90;;;;;;5091229;28;20465;-65
2021/12/18 13:19:51;;;;;;;;;;;9.40;99.90;;;;;;5072959;28;19916;-65
2021/12/18 13:22:16;;;;;;;;;;;9.30;99.90;;;;;;5091513;28;19923;-65
2021/12/18 13:24:42;;;;;;;;;;;9.40;99.90;;;;;;5073156;28;19999;-66
2021/12/18 13:27:11;;;;;;;;;;;9.40;99.90;;;;;;5091265;28;19920;-66
2021/12/18 13:29:37;;;;;;;;;;;9.40;99.90;;;;;;5097767;22;19927;-64
2021/12/18 13:32:04;;;;;;;;;;;9.40;99.90;;;;;;5052855;28;19917;-64
2021/12/18 13:34:32;;;;;;;;;;;9.40;99.90;;;;;;5070865;28;19923;-64
2021/12/18 13:36:59;;;;;;;;;;;9.40;99.90;;;;;;5070890;28;19921;-64
2021/12/18 13:39:32;;;;;;;;;;;9.30;99.90;;;;;;5070809;28;20389;-64
2021/12/18 13:42:06;;;;;;;;;;;9.40;99.90;;;;;;5070605;28;19923;-64
2021/12/18 13:44:39;;;;;;;;;;;9.30;99.90;;;;;;5053053;28;19920;-64
2021/12/18 13:47:19;;;;;;;;;;;9.30;99.90;;;;;;5070447;28;19960;-64
2021/12/18 13:49:45;;;;;;;;;;;9.30;99.90;;;;;;5070606;28;20282;-64
2021/12/18 13:52:11;;;;;;;;;;;9.30;99.90;;;;;;5070455;28;19943;-64
2021/12/18 13:54:38;;;;;;;;;;;9.30;99.90;;;;;;5070668;28;19938;-64
2021/12/18 13:57:04;;;;;;;;;;;9.20;99.90;;;;;;5069659;28;19920;-64
2021/12/18 13:59:29;;;;;;;;;;;9.20;99.90;;;;;;5070242;28;19943;-64
2021/12/18 14:02:00;;;;;;;;;;;9.20;99.90;;;;;;5070280;28;19920;-64
2021/12/18 14:04:25;;;;;;;;;;;9.20;99.90;;;;;;5070678;28;19963;-64
2021/12/18 14:06:51;;;;;;;;;;;9.20;99.90;;;;;;5070584;28;20534;-64
2021/12/18 14:09:19;;;;;;;;;;;9.20;99.90;;;;;;5070282;28;19923;-64
2021/12/18 14:12:02;;;;;;;;;;;9.20;99.90;;;;;;5070358;28;20025;-64
2021/12/18 14:14:31;;;;;;;;;;;9.20;99.90;;;;;;5070537;28;19923;-64
2021/12/18 14:16:57;;;;;;;;;;;9.20;99.90;;;;;;5070202;28;20013;-64
2021/12/18 14:19:27;;;;;;;;;;;9.20;99.90;;;;;;5070397;28;19993;-64
2021/12/18 14:21:52;;;;;;;;;;;9.20;99.90;;;;;;5070091;28;20435;-64
2021/12/18 14:24:19;;;;;;;;;;;9.20;99.90;;;;;;5070019;28;19916;-64
2021/12/18 14:27:14;;;;;;;;;;;9.20;99.90;;;;;;5070201;28;19924;-64
2021/12/18 14:29:52;;;;;;;;;;;9.20;99.90;;;;;;5060914;28;19916;-64
2021/12/18 14:32:20;;;;;;;;;;;9.10;99.90;;;;;;5069856;28;19923;-64
2021/12/18 14:34:46;;;;;;;;;;;9.10;99.90;;;;;;5069975;28;19924;-64
2021/12/18 14:37:12;;;;;;;;;;;9.20;99.90;;;;;;5070274;28;19924;-64
2021/12/18 14:39:38;;;;;;;;;;;9.20;99.90;;;;;;5070007;28;19924;-64
2021/12/18 14:42:05;;;;;;;;;;;9.20;99.90;;;;;;5069988;28;19916;-64
2021/12/18 14:44:32;;;;;;;;;;;9.20;99.90;;;;;;5052300;28;20003;-64
2021/12/18 14:47:10;;;;;;;;;;;9.20;99.90;;;;;;5069896;28;19997;-64
2021/12/18 14:49:36;;;;;;;;;;;9.10;99.90;;;;;;5069919;28;19924;-64
2021/12/18 14:52:06;;;;;;;;;;;9.10;99.90;;;;;;5069814;28;20442;-64
2021/12/18 14:54:52;;;;;;;;;;;9.20;99.90;;;;;;5070153;28;19916;-64
2021/12/18 14:57:22;;;;;;;;;;;9.10;99.90;;;;;;5069882;28;20577;-64
2021/12/18 14:59:48;;;;;;;;;;;9.10;99.90;;;;;;5069650;28;19917;-64
2021/12/18 15:02:13;;;;;;;;;;;9.10;99.90;;;;;;5069630;28;19924;-64
2021/12/18 15:04:39;;;;;;;;;;;9.10;99.90;;;;;;5069933;28;19916;-64
2021/12/18 15:07:10;;;;;;;;;;;9.10;99.90;;;;;;5069874;28;19923;-64
2021/12/18 15:09:38;;;;;;;;;;;9.10;99.90;;;;;;5073588;28;20390;-64
2021/12/18 15:12:04;;;;;;;;;;;9.10;99.90;;;;;;5055356;28;20444;-64
2021/12/18 15:14:36;;;;;;;;;;;9.00;99.90;;;;;;5073219;28;20002;-64
2021/12/18 15:17:05;;;;;;;;;;;9.10;99.90;;;;;;5073684;28;20035;-65